Reddick, Illinois
Current Conditions -  °F | °C
As of 7:55 AM on Monday 22 Dec 2014 (Local Time) from KIKK Reporting Station
Overcast Overcast  
Wind Chill: 24°   Ceiling: 4800
Heat Index: 32°   Visibility: 7mi
Dew Point: 29°   Wind: 10mph
Humidity: 89%   Direction: 100°E
Pressure: 29.91"   Gusts: NA
Location:  41.1°N, 88.25°W
Report Text: KIKK 221355Z AUTO 10009KT 7SM OVC048 00/M01 A2991 RMK AO2 T00011015
Loading
Personal Weather Stations






























Interactive Weather Map New forecast layout! Learn more

10-Day Weather Forecast

Advertisements
Track Severe Weather on mobile